createdAt,value
2017-11-10T00:01:00.293Z,34.47
2017-11-10T00:03:27.836Z,34.30
2017-11-10T00:05:56.096Z,35.87
2017-11-10T00:08:24.368Z,38.60
2017-11-10T00:10:52.656Z,35.43
2017-11-10T00:13:20.929Z,38.37
2017-11-10T00:15:49.217Z,37.20
2017-11-10T00:18:16.733Z,32.50
2017-11-10T00:20:44.248Z,38.03
2017-11-10T00:23:11.755Z,36.80
2017-11-10T00:25:39.280Z,29.87
2017-11-10T00:28:06.785Z,34.97
2017-11-10T00:30:35.438Z,36.50
2017-11-10T00:33:03.712Z,33.03
2017-11-10T00:35:31.228Z,35.27
2017-11-10T00:37:58.734Z,34.57
2017-11-10T00:40:26.256Z,31.63
2017-11-10T00:42:53.762Z,34.20
2017-11-10T00:45:21.284Z,34.10
2017-11-10T00:47:48.784Z,35.57
2017-11-10T00:50:16.320Z,37.47
2017-11-10T00:52:43.836Z,38.40
2017-11-10T00:55:11.357Z,37.07
2017-11-10T00:57:38.868Z,39.73
2017-11-10T01:00:06.393Z,31.47
2017-11-10T01:02:34.677Z,37.40
2017-11-10T01:05:02.984Z,33.20
2017-11-10T01:07:30.491Z,37.93
2017-11-10T01:10:02.877Z,32.03
2017-11-10T01:12:31.148Z,34.07
2017-11-10T01:14:59.437Z,34.03
2017-11-10T01:17:26.949Z,38.17
2017-11-10T01:19:54.488Z,34.80
2017-11-10T01:22:22.000Z,36.60
2017-11-10T01:24:50.279Z,38.40
2017-11-10T01:27:18.568Z,34.00
2017-11-10T01:29:46.840Z,37.37
2017-11-10T01:32:15.120Z,35.73
2017-11-10T01:34:43.384Z,34.53
2017-11-10T01:37:11.692Z,35.43
2017-11-10T01:39:39.196Z,35.87
2017-11-10T01:42:06.711Z,34.23
2017-11-10T01:44:34.215Z,34.93
2017-11-10T01:47:01.732Z,40.77
2017-11-10T01:49:29.228Z,35.13
2017-11-10T01:51:56.745Z,37.10
2017-11-10T01:54:24.253Z,39.97
2017-11-10T01:56:51.787Z,36.63
2017-11-10T01:59:19.287Z,34.87
2017-11-10T02:01:47.575Z,36.30
2017-11-10T02:04:15.086Z,29.80
2017-11-10T02:06:42.619Z,32.43
2017-11-10T02:09:10.126Z,33.77
2017-11-10T02:11:38.416Z,32.50
2017-11-10T02:14:06.684Z,35.53
2017-11-10T02:16:34.972Z,38.83
2017-11-10T02:19:03.239Z,35.87
2017-11-10T02:21:31.524Z,36.43
2017-11-10T02:23:59.792Z,38.73
2017-11-10T02:26:28.134Z,36.83
2017-11-10T02:28:55.636Z,34.43
2017-11-10T02:31:23.934Z,37.20
2017-11-10T02:33:51.436Z,38.80
2017-11-10T02:36:18.955Z,37.90
2017-11-10T02:38:48.384Z,37.50
2017-11-10T02:41:15.914Z,41.37
2017-11-10T02:43:43.433Z,36.37
2017-11-10T02:46:11.731Z,39.03
2017-11-10T02:48:39.239Z,39.17
2017-11-10T02:51:06.765Z,33.90
2017-11-10T02:53:34.264Z,35.00
2017-11-10T02:56:01.785Z,38.60
2017-11-10T02:58:29.288Z,38.27
2017-11-10T03:00:56.812Z,39.17
2017-11-10T03:03:24.321Z,33.90
2017-11-10T03:05:52.604Z,32.90
2017-11-10T03:08:20.876Z,36.47
2017-11-10T03:10:49.161Z,35.73
2017-11-10T03:13:16.677Z,36.90
2017-11-10T03:15:44.200Z,32.93
2017-11-10T03:18:11.704Z,35.50
2017-11-10T03:20:39.229Z,33.27
2017-11-10T03:23:06.731Z,30.90
2017-11-10T03:25:35.028Z,31.43
2017-11-10T03:28:02.528Z,28.63
2017-11-10T03:30:30.797Z,26.37
2017-11-10T03:32:58.320Z,30.43
2017-11-10T03:35:25.829Z,30.13
2017-11-10T03:37:53.343Z,30.67
2017-11-10T03:40:20.840Z,29.20
2017-11-10T03:42:48.388Z,28.07
2017-11-10T03:45:15.896Z,25.20
2017-11-10T03:47:44.175Z,29.93
2017-11-10T03:50:12.445Z,27.47
2017-11-10T03:52:40.732Z,26.67
2017-11-10T03:55:08.995Z,26.80
2017-11-10T03:57:36.518Z,25.80
2017-11-10T04:00:04.793Z,29.43
2017-11-10T04:02:32.563Z,31.90
2017-11-10T04:05:00.842Z,26.33
2017-11-10T04:07:28.365Z,29.23
2017-11-10T04:09:55.868Z,27.67
2017-11-10T04:12:23.384Z,25.73
2017-11-10T04:14:50.880Z,28.13
2017-11-10T04:17:18.395Z,25.63
2017-11-10T04:19:45.896Z,26.83
2017-11-10T04:22:13.437Z,25.30
2017-11-10T04:24:40.936Z,26.90
2017-11-10T04:27:09.220Z,25.13
2017-11-10T04:29:37.496Z,23.90
2017-11-10T04:32:05.784Z,22.10
2017-11-10T04:34:33.288Z,26.03
2017-11-10T04:37:00.811Z,24.53
2017-11-10T04:39:28.307Z,23.37
2017-11-10T04:41:55.826Z,24.77
2017-11-10T04:44:23.331Z,26.27
2017-11-10T04:46:50.852Z,23.70
2017-11-10T04:49:18.363Z,23.30
2017-11-10T04:51:45.889Z,22.50
2017-11-10T04:54:13.393Z,26.17
2017-11-10T04:56:41.684Z,21.67
2017-11-10T04:59:09.217Z,24.80
2017-11-10T05:01:37.503Z,19.67
2017-11-10T05:04:05.773Z,26.87
2017-11-10T05:06:34.059Z,24.23
2017-11-10T05:09:02.333Z,25.90
2017-11-10T05:11:30.630Z,26.60
2017-11-10T05:13:58.137Z,23.47
2017-11-10T05:16:25.661Z,24.97
2017-11-10T05:18:53.159Z,22.03
2017-11-10T05:21:20.680Z,24.83
2017-11-10T05:23:48.189Z,24.63
2017-11-10T05:26:16.478Z,24.43
2017-11-10T05:28:44.748Z,20.37
2017-11-10T05:31:13.036Z,22.20
2017-11-10T05:33:41.304Z,23.63
2017-11-10T05:36:09.586Z,25.60
2017-11-10T05:38:38.144Z,27.70
2017-11-10T05:41:05.645Z,26.20
2017-11-10T05:43:33.175Z,26.70
2017-11-10T05:46:01.439Z,26.73
2017-11-10T05:48:28.959Z,25.90
2017-11-10T05:50:56.471Z,23.53
2017-11-10T05:53:24.756Z,26.83
2017-11-10T05:55:52.264Z,23.63
2017-11-10T05:58:19.790Z,25.03
2017-11-10T06:00:47.291Z,26.50
2017-11-10T06:03:14.808Z,21.90
2017-11-10T06:05:42.349Z,26.30
2017-11-10T06:08:09.880Z,23.97
2017-11-10T06:10:37.384Z,23.73
2017-11-10T06:13:04.902Z,25.13
2017-11-10T06:15:33.167Z,24.57
2017-11-10T06:18:00.693Z,24.30
2017-11-10T06:20:28.205Z,29.23
2017-11-10T06:22:56.503Z,21.83
2017-11-10T06:25:24.007Z,28.70
2017-11-10T06:27:51.528Z,26.20
2017-11-10T06:30:19.032Z,26.07
2017-11-10T06:32:46.562Z,24.00
2017-11-10T06:35:14.836Z,27.80
2017-11-10T06:37:42.363Z,26.70
2017-11-10T06:40:09.875Z,24.93
2017-11-10T06:42:37.849Z,26.67
2017-11-10T06:45:05.358Z,28.70
2017-11-10T06:47:32.875Z,26.00
2017-11-10T06:50:00.386Z,27.20
2017-11-10T06:52:27.916Z,27.17
2017-11-10T06:54:56.184Z,25.93
2017-11-10T06:57:24.476Z,24.93
2017-11-10T06:59:51.983Z,31.77
2017-11-10T07:02:19.500Z,29.60
2017-11-10T07:04:47.007Z,28.70
2017-11-10T07:07:14.536Z,27.83
2017-11-10T07:09:42.045Z,29.80
2017-11-10T07:14:44.299Z,29.80
2017-11-10T07:17:11.833Z,29.67
2017-11-10T07:19:39.331Z,27.40
2017-11-10T07:22:06.853Z,26.80
2017-11-10T07:24:34.617Z,25.60
2017-11-10T07:27:02.145Z,29.83
2017-11-10T07:29:29.644Z,27.70
2017-11-10T07:31:57.932Z,30.77
2017-11-10T07:34:25.436Z,25.73
2017-11-10T07:36:52.961Z,37.23
2017-11-10T07:39:20.469Z,37.67
2017-11-10T07:41:47.994Z,26.17
2017-11-10T07:44:16.266Z,24.97
2017-11-10T07:46:44.589Z,30.53
2017-11-10T07:49:12.096Z,29.60
2017-11-10T07:51:40.370Z,24.37
2017-11-10T07:54:08.672Z,28.20
2017-11-10T07:56:36.188Z,28.87
2017-11-10T07:59:03.709Z,32.83
2017-11-10T08:01:31.212Z,32.13
2017-11-10T08:03:58.732Z,41.47
2017-11-10T08:06:26.240Z,33.30
2017-11-10T08:08:53.766Z,32.20
2017-11-10T08:11:21.276Z,33.10
2017-11-10T08:13:49.565Z,40.33
2017-11-10T08:16:17.073Z,29.43
2017-11-10T08:18:44.595Z,36.57
2017-11-10T08:21:12.100Z,35.97
2017-11-10T08:23:39.622Z,38.63
2017-11-10T08:26:07.125Z,33.87
2017-11-10T08:28:35.435Z,36.90
2017-11-10T08:31:02.940Z,34.20
2017-11-10T08:33:30.458Z,37.33
2017-11-10T08:35:57.985Z,38.20
2017-11-10T08:38:26.264Z,33.17
2017-11-10T08:40:54.558Z,35.40
2017-11-10T08:43:22.066Z,36.00
2017-11-10T08:45:49.588Z,33.67
2017-11-10T08:48:17.097Z,38.17
2017-11-10T08:50:44.625Z,37.50
2017-11-10T08:53:12.905Z,35.87
2017-11-10T08:55:40.428Z,33.37
2017-11-10T08:58:07.936Z,34.20
2017-11-10T09:00:35.456Z,33.43
2017-11-10T09:03:02.974Z,34.87
2017-11-10T09:05:31.260Z,29.67
2017-11-10T09:07:59.527Z,36.30
2017-11-10T09:10:27.812Z,32.27
2017-11-10T09:12:56.084Z,33.33
2017-11-10T09:15:24.374Z,37.07
2017-11-10T09:17:51.876Z,33.57
2017-11-10T09:20:19.403Z,31.73
2017-11-10T09:22:46.928Z,34.73
2017-11-10T09:25:15.201Z,31.77
2017-11-10T09:27:43.488Z,37.87
2017-11-10T09:30:27.683Z,37.93
2017-11-10T09:32:59.926Z,34.43
2017-11-10T09:35:33.060Z,35.70
2017-11-10T09:38:06.244Z,33.90
2017-11-10T09:40:47.467Z,37.80
2017-11-10T09:43:27.628Z,36.77
2017-11-10T09:45:56.717Z,36.10
2017-11-10T09:48:30.711Z,41.20
2017-11-10T09:54:16.909Z,36.23
2017-11-10T09:57:04.092Z,33.27
2017-11-10T09:59:37.393Z,35.40
2017-11-10T10:02:05.376Z,31.37
2017-11-10T10:04:47.779Z,35.30
2017-11-10T10:07:15.907Z,38.63
2017-11-10T10:10:02.282Z,35.30
2017-11-10T10:15:45.409Z,32.57
2017-11-10T10:18:19.483Z,34.03
2017-11-10T10:20:48.909Z,38.67
2017-11-10T10:23:16.437Z,38.53
2017-11-10T10:25:43.954Z,32.03
2017-11-10T10:28:11.484Z,37.47
2017-11-10T10:30:38.996Z,34.93
2017-11-10T10:33:07.290Z,35.67
2017-11-10T10:35:34.801Z,35.07
2017-11-10T10:38:02.321Z,31.70
2017-11-10T10:40:29.823Z,38.57
2017-11-10T10:42:57.371Z,35.50
2017-11-10T10:45:24.877Z,34.17
2017-11-10T10:47:52.389Z,33.50
2017-11-10T10:50:19.921Z,44.40
2017-11-10T10:52:47.425Z,47.33
2017-11-10T10:55:15.716Z,31.90
2017-11-10T10:57:43.997Z,34.40
2017-11-10T11:00:11.524Z,32.40
2017-11-10T11:02:39.037Z,37.80
2017-11-10T11:05:06.561Z,36.40
2017-11-10T11:07:34.837Z,37.20
2017-11-10T11:10:03.132Z,30.13
2017-11-10T11:12:30.756Z,33.87
2017-11-10T11:14:58.279Z,31.07
2017-11-10T11:17:25.785Z,32.00
2017-11-10T11:19:54.075Z,34.20
2017-11-10T11:22:21.581Z,33.63
2017-11-10T11:24:49.096Z,33.07
2017-11-10T11:27:16.602Z,37.03
2017-11-10T11:29:44.128Z,32.30
2017-11-10T11:32:11.637Z,36.90
2017-11-10T11:34:39.155Z,38.57
2017-11-10T11:37:06.651Z,35.67
2017-11-10T11:39:34.160Z,40.03
2017-11-10T11:42:01.690Z,35.03
2017-11-10T11:44:29.965Z,34.93
2017-11-10T11:46:58.248Z,34.03
2017-11-10T11:49:26.516Z,36.50
2017-11-10T11:51:54.809Z,34.10
2017-11-10T11:54:22.329Z,37.73
2017-11-10T11:56:49.853Z,34.23
2017-11-10T11:59:17.368Z,38.60
2017-11-10T12:01:45.664Z,36.27
2017-11-10T12:04:13.172Z,33.70
2017-11-10T12:06:40.692Z,30.67
2017-11-10T12:09:08.204Z,31.93
2017-11-10T12:11:36.509Z,33.63
2017-11-10T12:14:04.031Z,33.97
2017-11-10T12:16:31.569Z,31.73
2017-11-10T12:18:59.076Z,34.60
2017-11-10T12:21:27.366Z,27.90
2017-11-10T12:23:54.880Z,31.57
2017-11-10T12:26:22.407Z,33.97
2017-11-10T12:28:49.905Z,27.57
2017-11-10T12:31:17.428Z,31.80
2017-11-10T12:33:44.933Z,30.83
2017-11-10T12:36:13.228Z,30.20
2017-11-10T12:38:40.740Z,26.93
2017-11-10T12:41:09.013Z,29.73
2017-11-10T12:43:36.540Z,28.83
2017-11-10T12:46:04.073Z,30.80
2017-11-10T12:48:32.368Z,31.80
2017-11-10T12:50:59.878Z,29.13
2017-11-10T12:53:27.402Z,32.03
2017-11-10T12:55:54.904Z,31.00
2017-11-10T12:58:22.428Z,31.43
2017-11-10T13:00:49.940Z,24.43
2017-11-10T13:03:18.241Z,29.23
2017-11-10T13:05:45.753Z,31.10
2017-11-10T13:08:13.277Z,27.13
2017-11-10T13:10:40.787Z,28.03
2017-11-10T13:13:09.077Z,30.17
2017-11-10T13:15:36.585Z,27.43
2017-11-10T13:18:04.110Z,29.23
2017-11-10T13:20:31.616Z,27.87
2017-11-10T13:22:59.140Z,27.27
2017-11-10T13:25:26.648Z,30.77
2017-11-10T13:27:54.189Z,24.87
2017-11-10T13:30:21.692Z,28.10
2017-11-10T13:32:49.212Z,28.33
2017-11-10T13:35:16.719Z,30.23
2017-11-10T13:37:44.240Z,26.87
2017-11-10T13:40:12.532Z,28.13
2017-11-10T13:42:40.043Z,25.30
2017-11-10T13:45:07.573Z,26.50
2017-11-10T13:47:35.078Z,29.20
2017-11-10T13:50:02.600Z,28.03
2017-11-10T13:52:30.109Z,27.20
2017-11-10T13:54:57.627Z,29.33
2017-11-10T13:57:25.137Z,26.80
2017-11-10T13:59:52.902Z,27.77
2017-11-10T14:02:20.415Z,25.33
2017-11-10T14:04:47.941Z,30.23
2017-11-10T14:07:15.440Z,32.20
2017-11-10T14:09:42.965Z,27.90
2017-11-10T14:12:10.472Z,23.37
2017-11-10T14:14:38.776Z,33.33
2017-11-10T14:17:06.283Z,28.80
2017-11-10T14:19:33.818Z,28.73
2017-11-10T14:22:02.106Z,30.10
2017-11-10T14:24:29.638Z,33.10
2017-11-10T14:26:57.144Z,25.47
2017-11-10T14:29:24.648Z,27.57
2017-11-10T14:31:52.173Z,30.33
2017-11-10T14:34:20.447Z,28.70
2017-11-10T14:36:48.748Z,28.83
2017-11-10T14:39:16.254Z,28.83
2017-11-10T14:41:43.778Z,29.97
2017-11-10T14:44:11.289Z,28.70
2017-11-10T14:46:38.810Z,28.30
2017-11-10T14:49:06.316Z,26.10
2017-11-10T14:51:34.607Z,28.23
2017-11-10T14:54:02.882Z,28.23
2017-11-10T14:56:31.168Z,27.43
2017-11-10T14:58:58.681Z,30.83
2017-11-10T15:01:26.204Z,32.17
2017-11-10T15:03:53.720Z,27.20
2017-11-10T15:06:22.012Z,29.43
2017-11-10T15:08:50.284Z,32.13
2017-11-10T15:11:18.582Z,29.93
2017-11-10T15:13:46.089Z,32.30
2017-11-10T15:16:13.626Z,29.27
2017-11-10T15:18:41.136Z,28.63
2017-11-10T15:21:08.660Z,29.53
2017-11-10T15:23:36.169Z,25.50
2017-11-10T15:26:03.707Z,26.50
2017-11-10T15:28:31.979Z,30.00
2017-11-10T15:31:00.245Z,30.07
2017-11-10T15:33:28.537Z,38.67
2017-11-10T15:35:56.817Z,31.47
2017-11-10T15:38:24.340Z,35.97
2017-11-10T15:40:51.845Z,36.80
2017-11-10T15:43:19.363Z,30.83
2017-11-10T15:45:46.867Z,43.03
2017-11-10T15:48:14.388Z,37.60
2017-11-10T15:50:41.893Z,39.33
2017-11-10T15:53:09.414Z,34.60
2017-11-10T15:55:37.701Z,32.90
2017-11-10T15:58:05.235Z,41.30
2017-11-10T16:00:32.744Z,32.90
2017-11-10T16:03:00.268Z,32.87
2017-11-10T16:05:28.536Z,31.90
2017-11-10T16:07:56.825Z,30.90
2017-11-10T16:10:25.102Z,28.37
2017-11-10T16:12:52.633Z,29.17
2017-11-10T16:15:20.144Z,34.87
2017-11-10T16:17:47.672Z,33.53
2017-11-10T16:20:15.946Z,29.90
2017-11-10T16:22:44.236Z,31.90
2017-11-10T16:25:11.740Z,27.73
2017-11-10T16:27:39.268Z,35.80
2017-11-10T16:30:06.784Z,33.20
2017-11-10T16:32:34.292Z,24.83
2017-11-10T16:35:01.817Z,28.80
2017-11-10T16:37:30.088Z,26.73
2017-11-10T16:39:58.377Z,24.10
2017-11-10T16:42:25.879Z,22.93
2017-11-10T16:44:54.168Z,22.87
2017-11-10T16:47:21.672Z,19.27
2017-11-10T16:49:49.188Z,16.20
2017-11-10T16:52:16.701Z,20.50
2017-11-10T16:54:44.220Z,13.47
2017-11-10T16:57:11.724Z,17.60
2017-11-10T16:59:39.241Z,15.33
2017-11-10T17:02:07.521Z,16.33
2017-11-10T17:04:35.817Z,17.60
2017-11-10T17:07:03.325Z,15.80
2017-11-10T17:09:30.841Z,16.40
2017-11-10T17:11:58.344Z,16.90
2017-11-10T17:14:25.855Z,13.93
2017-11-10T17:16:53.356Z,16.27
2017-11-10T17:19:20.880Z,17.37
2017-11-10T17:21:48.379Z,13.07
2017-11-10T17:24:15.893Z,11.53
2017-11-10T17:26:43.394Z,11.90
2017-11-10T17:29:10.912Z,13.37
2017-11-10T17:31:38.416Z,16.83
2017-11-10T17:34:05.921Z,12.10
2017-11-10T17:36:33.450Z,11.80
2017-11-10T17:39:01.713Z,13.17
2017-11-10T17:41:29.999Z,14.13
2017-11-10T17:43:58.260Z,9.73
2017-11-10T17:46:25.785Z,11.27
2017-11-10T17:48:53.285Z,9.30
2017-11-10T17:51:21.571Z,11.87
2017-11-10T17:53:49.831Z,8.17
2017-11-10T17:56:17.342Z,9.73
2017-11-10T17:58:44.844Z,11.83
2017-11-10T18:01:12.355Z,9.90
2017-11-10T18:03:39.852Z,14.43
2017-11-10T18:06:08.151Z,6.00
2017-11-10T18:08:36.412Z,9.07
2017-11-10T18:11:03.931Z,5.63
2017-11-10T18:13:31.428Z,7.40
2017-11-10T18:15:58.941Z,6.53
2017-11-10T18:18:26.440Z,6.53
2017-11-10T18:20:53.957Z,6.40
2017-11-10T18:23:21.452Z,6.13
2017-11-10T18:25:48.965Z,5.40
2017-11-10T18:28:16.464Z,5.47
2017-11-10T18:30:43.981Z,5.83
2017-11-10T18:33:11.495Z,7.10
2017-11-10T18:35:39.008Z,4.30
2017-11-10T18:38:06.499Z,5.30
2017-11-10T18:40:34.008Z,5.63
2017-11-10T18:43:01.525Z,8.97
2017-11-10T18:45:29.021Z,7.97
2017-11-10T18:47:56.545Z,10.83
2017-11-10T18:50:24.820Z,13.83
2017-11-10T18:52:52.337Z,24.20
2017-11-10T18:55:20.779Z,18.70
2017-11-10T18:57:49.069Z,15.10
2017-11-10T19:00:16.585Z,16.43
2017-11-10T19:02:44.114Z,10.27
2017-11-10T19:05:11.612Z,21.67
2017-11-10T19:07:39.123Z,9.30
2017-11-10T19:10:06.624Z,16.10
2017-11-10T19:12:34.159Z,44.97
2017-11-10T19:15:01.664Z,22.77
2017-11-10T19:17:29.956Z,37.17
2017-11-10T19:19:57.459Z,22.03
2017-11-10T19:22:24.976Z,16.27
2017-11-10T19:24:52.473Z,9.93
2017-11-10T19:27:19.995Z,28.00
2017-11-10T19:29:47.500Z,24.67
2017-11-10T19:32:15.031Z,8.23
2017-11-10T19:34:42.528Z,6.73
2017-11-10T19:37:10.799Z,19.57
2017-11-10T19:39:38.325Z,20.93
2017-11-10T19:42:05.834Z,6.30
2017-11-10T19:44:34.113Z,5.70
2017-11-10T19:47:02.372Z,8.97
2017-11-10T19:49:30.657Z,7.97
2017-11-10T19:51:59.877Z,6.10
2017-11-10T19:54:27.407Z,6.10
2017-11-10T19:56:55.669Z,7.20
2017-11-10T19:59:23.192Z,10.00
2017-11-10T20:01:50.687Z,8.07
2017-11-10T20:04:18.209Z,11.10
2017-11-10T20:06:45.713Z,8.80
2017-11-10T20:09:14.284Z,6.37
2017-11-10T20:11:41.779Z,8.70
2017-11-10T20:14:09.292Z,8.30
2017-11-10T20:16:36.792Z,8.67
2017-11-10T20:19:04.312Z,20.77
2017-11-10T20:21:31.813Z,18.00
2017-11-10T20:23:59.324Z,10.73
2017-11-10T20:26:26.828Z,6.87
2017-11-10T20:28:54.344Z,5.20
2017-11-10T20:31:21.844Z,12.33
2017-11-10T20:33:49.380Z,14.33
2017-11-10T20:36:17.643Z,11.67
2017-11-10T20:38:45.160Z,10.60
2017-11-10T20:41:12.660Z,6.33
2017-11-10T20:43:40.180Z,6.03
2017-11-10T20:46:07.686Z,10.63
2017-11-10T20:48:35.971Z,13.57
2017-11-10T20:51:04.236Z,12.20
2017-11-10T20:53:32.525Z,18.43
2017-11-10T20:56:00.788Z,9.07
2017-11-10T20:58:29.105Z,11.83
2017-11-10T21:00:56.604Z,12.13
2017-11-10T21:03:24.118Z,5.17
2017-11-10T21:05:51.616Z,6.10
2017-11-10T21:08:19.128Z,8.60
2017-11-10T21:10:46.629Z,5.40
2017-11-10T21:13:14.125Z,10.40
2017-11-10T21:15:42.413Z,11.23
2017-11-10T21:18:09.913Z,9.00
2017-11-10T21:20:37.432Z,6.97
2017-11-10T21:23:04.940Z,6.53
2017-11-10T21:25:32.464Z,6.73
2017-11-10T21:27:59.973Z,5.30
2017-11-10T21:30:27.485Z,7.00
2017-11-10T21:32:54.975Z,6.50
2017-11-10T21:35:22.490Z,4.20
2017-11-10T21:37:49.984Z,7.00
2017-11-10T21:40:18.268Z,6.20
2017-11-10T21:42:45.760Z,5.80
2017-11-10T21:45:14.040Z,7.17
2017-11-10T21:47:41.535Z,7.50
2017-11-10T21:50:09.047Z,4.77
2017-11-10T21:52:37.308Z,3.97
2017-11-10T21:55:05.597Z,4.43
2017-11-10T21:57:33.861Z,7.20
2017-11-10T22:00:02.143Z,4.03
2017-11-10T22:02:30.400Z,6.13
2017-11-10T22:04:57.909Z,10.30
2017-11-10T22:07:25.468Z,5.60
2017-11-10T22:09:53.227Z,5.73
2017-11-10T22:12:20.732Z,6.80
2017-11-10T22:14:48.262Z,9.93
2017-11-10T22:17:15.763Z,12.93
2017-11-10T22:19:44.053Z,9.20
2017-11-10T22:22:12.316Z,4.93
2017-11-10T22:24:40.600Z,6.00
2017-11-10T22:27:08.861Z,4.70
2017-11-10T22:29:36.369Z,4.90
2017-11-10T22:32:04.221Z,5.13
2017-11-10T22:34:31.731Z,4.83
2017-11-10T22:36:59.223Z,3.83
2017-11-10T22:39:27.508Z,15.00
2017-11-10T22:41:55.004Z,6.17
2017-11-10T22:44:22.523Z,5.20
2017-11-10T22:46:50.784Z,6.10
2017-11-10T22:49:19.059Z,4.80
2017-11-10T22:51:47.320Z,3.00
2017-11-10T22:54:14.828Z,4.83
2017-11-10T22:56:42.325Z,4.80
2017-11-10T22:59:09.836Z,6.60
2017-11-10T23:01:37.344Z,8.40
2017-11-10T23:04:04.860Z,7.37
2017-11-10T23:06:32.352Z,6.37
2017-11-10T23:08:59.860Z,7.07
2017-11-10T23:11:27.380Z,10.63
2017-11-10T23:13:54.881Z,7.00
2017-11-10T23:16:22.396Z,12.33
2017-11-10T23:18:49.892Z,8.73
2017-11-10T23:21:17.413Z,12.30
2017-11-10T23:23:44.912Z,10.90
2017-11-10T23:26:12.430Z,10.17
2017-11-10T23:28:39.923Z,7.83
2017-11-10T23:31:07.445Z,10.97
2017-11-10T23:33:34.951Z,13.67
2017-11-10T23:36:02.468Z,8.93
2017-11-10T23:38:30.736Z,13.87
2017-11-10T23:40:58.260Z,14.13
2017-11-10T23:43:25.756Z,9.80
2017-11-10T23:45:53.279Z,10.00
2017-11-10T23:48:20.782Z,8.40
2017-11-10T23:50:49.047Z,10.97
2017-11-10T23:53:16.564Z,10.90
2017-11-10T23:55:44.069Z,11.20
2017-11-10T23:58:11.597Z,14.50
